Time;durP1;ratioP1;P1;durP2;ratioP2;P2;SDS_P1;SDS_P2;PMS_P1;PMS_P2;Temp;Humidity;BMP_temperature;BMP_pressure;BME280_temperature;BME280_humidity;BME280_pressure;Samples;Min_cycle;Max_cycle;Signal;HPM_P1;HPM_P2
2022/04/04 00:02:04;;;;;;;10.27;5.13;;;;;;;;;;5143202;27;20034;-70
2022/04/04 00:04:30;;;;;;;9.63;4.85;;;;;;;;;;5139438;27;20105;-70
2022/04/04 00:06:55;;;;;;;16.85;4.95;;;;;;;;;;5143909;27;20469;-70
2022/04/04 00:09:21;;;;;;;13.43;5.38;;;;;;;;;;5141606;27;20027;-69
2022/04/04 00:11:47;;;;;;;13.07;4.43;;;;;;;;;;5122069;27;20098;-70
2022/04/04 00:14:12;;;;;;;11.23;4.60;;;;;;;;;;5143384;27;20117;-71
2022/04/04 00:16:38;;;;;;;10.02;4.55;;;;;;;;;;5140299;27;20437;-68
2022/04/04 00:19:04;;;;;;;11.45;4.40;;;;;;;;;;5140897;27;20118;-70
2022/04/04 00:21:29;;;;;;;10.13;4.47;;;;;;;;;;5141894;27;20015;-69
2022/04/04 00:23:56;;;;;;;11.75;4.43;;;;;;;;;;5144200;27;20038;-69
2022/04/04 00:26:21;;;;;;;9.00;4.53;;;;;;;;;;5087135;27;20023;-69
2022/04/04 00:28:47;;;;;;;12.88;4.68;;;;;;;;;;5106474;27;20122;-71
2022/04/04 00:31:12;;;;;;;7.55;4.25;;;;;;;;;;5147725;27;20030;-70
2022/04/04 00:33:38;;;;;;;8.98;4.80;;;;;;;;;;5145628;27;20382;-69
2022/04/04 00:36:04;;;;;;;12.00;4.47;;;;;;;;;;5089806;27;20141;-69
2022/04/04 00:38:29;;;;;;;10.45;4.88;;;;;;;;;;5126094;27;20111;-70
2022/04/04 00:40:54;;;;;;;14.75;4.70;;;;;;;;;;5125725;27;20007;-71
2022/04/04 00:43:20;;;;;;;13.88;5.05;;;;;;;;;;5131497;27;20038;-69
2022/04/04 00:45:45;;;;;;;10.95;5.45;;;;;;;;;;5106432;27;20413;-69
2022/04/04 00:48:11;;;;;;;16.77;5.65;;;;;;;;;;5126417;27;20138;-71
2022/04/04 00:50:36;;;;;;;13.65;6.15;;;;;;;;;;5104457;27;20445;-69
2022/04/04 00:53:01;;;;;;;14.10;6.30;;;;;;;;;;5127316;27;20027;-71
2022/04/04 00:55:27;;;;;;;10.60;5.43;;;;;;;;;;5106014;27;20366;-70
2022/04/04 00:57:54;;;;;;;10.50;5.47;;;;;;;;;;5091610;27;20407;-72
2022/04/04 01:00:20;;;;;;;11.15;5.50;;;;;;;;;;5126663;27;20019;-70
2022/04/04 01:02:45;;;;;;;9.93;5.93;;;;;;;;;;5125531;27;20026;-71
2022/04/04 01:05:11;;;;;;;11.77;5.63;;;;;;;;;;5124179;27;20101;-69
2022/04/04 01:07:37;;;;;;;10.95;5.55;;;;;;;;;;5125496;27;20023;-72
2022/04/04 01:10:03;;;;;;;15.52;6.32;;;;;;;;;;5124066;27;20094;-70
2022/04/04 01:12:29;;;;;;;12.77;5.82;;;;;;;;;;5126684;27;20027;-72
2022/04/04 01:14:54;;;;;;;12.05;5.90;;;;;;;;;;5106754;27;20042;-71
2022/04/04 01:17:25;;;;;;;9.25;5.65;;;;;;;;;;5127965;27;20019;-71
2022/04/04 01:19:51;;;;;;;11.68;6.80;;;;;;;;;;5105553;27;20019;-71
2022/04/04 01:22:16;;;;;;;10.95;6.10;;;;;;;;;;5126912;27;20058;-71
2022/04/04 01:24:41;;;;;;;9.23;5.97;;;;;;;;;;5124602;27;20469;-72
2022/04/04 01:27:07;;;;;;;10.60;6.35;;;;;;;;;;5125965;27;20163;-73
2022/04/04 01:29:37;;;;;;;13.13;5.57;;;;;;;;;;5125356;27;20019;-70
2022/04/04 01:32:02;;;;;;;10.38;5.97;;;;;;;;;;5126232;27;20421;-71
2022/04/04 01:34:29;;;;;;;10.10;6.20;;;;;;;;;;5104159;27;20030;-70
2022/04/04 01:36:54;;;;;;;8.93;5.68;;;;;;;;;;5106666;27;20108;-72
2022/04/04 01:39:20;;;;;;;12.95;6.93;;;;;;;;;;5105397;27;20448;-72
2022/04/04 01:41:45;;;;;;;14.32;6.03;;;;;;;;;;5090788;27;20056;-71
2022/04/04 01:44:11;;;;;;;13.27;6.30;;;;;;;;;;5124532;27;20842;-71
2022/04/04 01:46:36;;;;;;;14.23;6.40;;;;;;;;;;5105420;27;20047;-70
2022/04/04 01:49:03;;;;;;;11.65;5.70;;;;;;;;;;5104843;27;20149;-69
2022/04/04 01:51:30;;;;;;;11.77;6.32;;;;;;;;;;5125012;27;20159;-72
2022/04/04 01:53:56;;;;;;;11.80;6.40;;;;;;;;;;5088410;27;20313;-72
2022/04/04 01:56:21;;;;;;;12.95;6.57;;;;;;;;;;5105422;27;20488;-70
2022/04/04 01:58:47;;;;;;;12.73;5.82;;;;;;;;;;5123741;27;20057;-72
2022/04/04 02:01:18;;;;;;;12.75;6.53;;;;;;;;;;5127626;27;20019;-72
2022/04/04 02:03:44;;;;;;;9.25;5.72;;;;;;;;;;5123419;27;20469;-70
2022/04/04 02:06:09;;;;;;;11.98;6.13;;;;;;;;;;5105739;27;20383;-70
2022/04/04 02:08:35;;;;;;;10.80;6.20;;;;;;;;;;5122393;27;20027;-70
2022/04/04 03:40:13;;;;;;;12.40;5.15;;;;;;;;;;5107871;27;20563;-70
2022/04/04 03:42:42;;;;;;;11.23;5.10;;;;;;;;;;5123652;27;20023;-70
2022/04/04 03:45:11;;;;;;;8.90;4.80;;;;;;;;;;5104948;27;20023;-70
2022/04/04 03:47:36;;;;;;;10.98;5.43;;;;;;;;;;5110547;27;20460;-69
2022/04/04 03:50:02;;;;;;;13.35;5.80;;;;;;;;;;5139573;27;20186;-69
2022/04/04 03:52:27;;;;;;;12.48;5.78;;;;;;;;;;5142857;27;20097;-69
2022/04/04 03:54:52;;;;;;;14.18;5.53;;;;;;;;;;5142376;27;20414;-69
2022/04/04 03:57:18;;;;;;;15.18;5.38;;;;;;;;;;5143441;27;20021;-70
2022/04/04 03:59:44;;;;;;;14.80;6.50;;;;;;;;;;5142817;27;20018;-69
2022/04/04 04:02:10;;;;;;;12.52;5.50;;;;;;;;;;5105056;27;20025;-70
2022/04/04 04:04:35;;;;;;;10.77;5.63;;;;;;;;;;5147903;27;20427;-70
2022/04/04 04:07:00;;;;;;;11.60;5.95;;;;;;;;;;5109714;27;20030;-69
2022/04/04 04:09:25;;;;;;;12.23;5.88;;;;;;;;;;5131399;27;20087;-71
2022/04/04 04:11:51;;;;;;;13.65;6.05;;;;;;;;;;5106737;27;20035;-71
2022/04/04 04:14:17;;;;;;;11.82;6.22;;;;;;;;;;5108106;27;20065;-69
2022/04/04 04:16:42;;;;;;;8.98;6.47;;;;;;;;;;5125282;27;20035;-70
2022/04/04 04:20:19;;;;;;;13.63;6.45;;;;;;;;;;5107617;27;20389;-72
2022/04/04 04:21:53;;;;;;;17.73;7.25;;;;;;;;;;5124881;27;20365;-71
2022/04/04 04:24:19;;;;;;;16.42;7.20;;;;;;;;;;5125921;27;20478;-70
2022/04/04 04:26:48;;;;;;;18.48;7.35;;;;;;;;;;5107377;27;20407;-70
2022/04/04 04:29:13;;;;;;;19.42;7.55;;;;;;;;;;5106489;27;20377;-71
2022/04/04 04:31:39;;;;;;;17.38;6.60;;;;;;;;;;5131146;27;20031;-70
2022/04/04 04:34:04;;;;;;;13.98;7.38;;;;;;;;;;5126667;27;20832;-69
2022/04/04 04:36:29;;;;;;;17.33;7.32;;;;;;;;;;5123309;27;20442;-71
2022/04/04 04:38:55;;;;;;;15.70;8.00;;;;;;;;;;5125782;27;20511;-71
2022/04/04 04:41:21;;;;;;;13.35;7.68;;;;;;;;;;5106357;27;20138;-70
2022/04/04 04:43:47;;;;;;;15.77;8.30;;;;;;;;;;5125977;27;20131;-70
2022/04/04 04:46:12;;;;;;;17.95;7.47;;;;;;;;;;5088273;27;20027;-69
2022/04/04 04:48:38;;;;;;;17.27;8.20;;;;;;;;;;5126477;27;20552;-69
2022/04/04 04:51:03;;;;;;;15.60;8.73;;;;;;;;;;5102365;27;20480;-69
2022/04/04 04:53:28;;;;;;;13.57;8.75;;;;;;;;;;5126423;27;20035;-70
2022/04/04 04:55:54;;;;;;;14.30;8.73;;;;;;;;;;5123587;27;20075;-70
2022/04/04 04:58:19;;;;;;;20.48;8.90;;;;;;;;;;5108001;27;20031;-69
2022/04/04 05:00:44;;;;;;;15.35;8.65;;;;;;;;;;5124763;27;20102;-70
2022/04/04 05:03:25;;;;;;;18.13;8.45;;;;;;;;;;5105889;27;20122;-70
2022/04/04 05:05:51;;;;;;;16.42;8.77;;;;;;;;;;5105128;27;20027;-69
2022/04/04 05:08:17;;;;;;;20.77;8.23;;;;;;;;;;5108234;27;20449;-70
2022/04/04 05:10:42;;;;;;;19.58;8.80;;;;;;;;;;5123876;27;20042;-70
2022/04/04 05:13:08;;;;;;;19.88;8.60;;;;;;;;;;5123734;27;20026;-69
2022/04/04 05:15:33;;;;;;;18.00;9.20;;;;;;;;;;5122505;27;20035;-71
2022/04/04 05:17:58;;;;;;;17.73;8.85;;;;;;;;;;5123977;27;20681;-71
2022/04/04 05:20:23;;;;;;;19.35;9.05;;;;;;;;;;5114924;27;20507;-70
2022/04/04 05:22:49;;;;;;;15.45;9.18;;;;;;;;;;5147765;27;20029;-70
2022/04/04 05:25:15;;;;;;;18.15;9.13;;;;;;;;;;5126699;27;20023;-69
2022/04/04 05:27:41;;;;;;;15.52;9.45;;;;;;;;;;5148466;27;20041;-71
2022/04/04 05:30:10;;;;;;;20.00;9.63;;;;;;;;;;5144651;27;20042;-71
2022/04/04 05:32:36;;;;;;;21.83;10.52;;;;;;;;;;5127490;27;20019;-72
2022/04/04 05:35:02;;;;;;;23.45;10.63;;;;;;;;;;5143700;27;20548;-69
2022/04/04 05:37:29;;;;;;;14.80;8.43;;;;;;;;;;5147416;27;20576;-70
2022/04/04 05:39:54;;;;;;;12.70;7.53;;;;;;;;;;5146099;27;20074;-69
2022/04/04 05:42:20;;;;;;;8.95;4.82;;;;;;;;;;5128107;27;20039;-70
2022/04/04 05:44:45;;;;;;;6.25;4.38;;;;;;;;;;5128200;27;20039;-69
2022/04/04 05:47:11;;;;;;;10.30;3.33;;;;;;;;;;5143347;27;20730;-69
2022/04/04 05:49:36;;;;;;;6.28;3.85;;;;;;;;;;5143821;27;20323;-70
2022/04/04 05:52:02;;;;;;;5.10;3.47;;;;;;;;;;5144999;27;20027;-70
2022/04/04 05:54:27;;;;;;;6.25;3.58;;;;;;;;;;5143515;27;20015;-69
2022/04/04 05:56:53;;;;;;;6.47;3.85;;;;;;;;;;5146791;27;20030;-70
2022/04/04 05:59:19;;;;;;;5.43;3.53;;;;;;;;;;5111051;27;20537;-70
2022/04/04 06:01:44;;;;;;;8.30;4.00;;;;;;;;;;5144997;27;20464;-69
2022/04/04 06:04:09;;;;;;;7.22;3.72;;;;;;;;;;5126198;27;20035;-70
2022/04/04 06:06:34;;;;;;;6.65;3.20;;;;;;;;;;5133466;27;20027;-69
2022/04/04 06:09:00;;;;;;;10.68;4.13;;;;;;;;;;5105630;27;20106;-70
2022/04/04 06:11:25;;;;;;;10.32;4.10;;;;;;;;;;5123352;27;20482;-70
2022/04/04 06:13:51;;;;;;;7.45;4.43;;;;;;;;;;5125947;27;20127;-70
2022/04/04 06:16:17;;;;;;;8.00;4.80;;;;;;;;;;5102229;27;20023;-70
2022/04/04 06:18:43;;;;;;;8.45;4.75;;;;;;;;;;5126255;27;20439;-70
2022/04/04 06:21:08;;;;;;;11.13;4.65;;;;;;;;;;5120985;27;20545;-70
2022/04/04 06:23:33;;;;;;;11.15;4.30;;;;;;;;;;5125300;27;20008;-71
2022/04/04 06:26:00;;;;;;;12.70;4.80;;;;;;;;;;5103174;27;20163;-70
2022/04/04 06:28:27;;;;;;;15.50;4.55;;;;;;;;;;5088908;27;20074;-69
2022/04/04 06:30:52;;;;;;;9.25;4.25;;;;;;;;;;5123007;27;20050;-69
2022/04/04 06:33:18;;;;;;;6.70;3.50;;;;;;;;;;5125101;27;20051;-71
2022/04/04 06:35:43;;;;;;;12.48;4.05;;;;;;;;;;5123042;27;20458;-70
2022/04/04 06:38:10;;;;;;;12.98;4.72;;;;;;;;;;5123513;27;20064;-73
2022/04/04 06:40:35;;;;;;;10.90;4.03;;;;;;;;;;5122989;27;20073;-75
2022/04/04 06:43:01;;;;;;;12.38;4.57;;;;;;;;;;5106611;27;20478;-76
2022/04/04 06:45:26;;;;;;;11.98;3.92;;;;;;;;;;5124495;27;20023;-74
2022/04/04 06:47:51;;;;;;;17.30;4.30;;;;;;;;;;5126235;27;20023;-75
2022/04/04 06:50:17;;;;;;;12.70;4.85;;;;;;;;;;5122347;27;20520;-74
2022/04/04 06:52:43;;;;;;;11.23;4.70;;;;;;;;;;5107728;27;20042;-75
2022/04/04 06:55:08;;;;;;;15.88;5.53;;;;;;;;;;5122829;27;20027;-74
2022/04/04 06:57:33;;;;;;;17.25;5.57;;;;;;;;;;5107046;27;20363;-74
2022/04/04 06:59:59;;;;;;;10.05;5.13;;;;;;;;;;5125123;27;20027;-74
2022/04/04 07:02:24;;;;;;;10.27;5.10;;;;;;;;;;5088791;27;20383;-75
2022/04/04 07:04:49;;;;;;;11.57;4.95;;;;;;;;;;5106050;27;20109;-75
2022/04/04 07:07:17;;;;;;;16.83;5.78;;;;;;;;;;5124343;27;20468;-76
2022/04/04 07:09:42;;;;;;;13.00;5.65;;;;;;;;;;5123384;27;20088;-76
2022/04/04 07:12:09;;;;;;;18.33;6.50;;;;;;;;;;5124610;27;20019;-76
2022/04/04 07:14:34;;;;;;;14.05;6.32;;;;;;;;;;5115579;27;20034;-77
2022/04/04 07:17:01;;;;;;;14.77;6.35;;;;;;;;;;5128684;27;20015;-74
2022/04/04 07:19:32;;;;;;;17.80;6.50;;;;;;;;;;5088254;27;20045;-74
2022/04/04 07:21:58;;;;;;;18.83;7.03;;;;;;;;;;5141513;27;20019;-74
2022/04/04 07:24:24;;;;;;;20.15;6.82;;;;;;;;;;5125957;27;20356;-74
2022/04/04 07:26:49;;;;;;;17.77;7.43;;;;;;;;;;5147798;27;20106;-76
2022/04/04 07:29:15;;;;;;;13.82;7.18;;;;;;;;;;5150828;27;20518;-72
2022/04/04 07:31:42;;;;;;;19.48;7.78;;;;;;;;;;5151240;27;20204;-74
2022/04/04 07:34:07;;;;;;;14.65;6.80;;;;;;;;;;5148378;27;20087;-74
2022/04/04 07:36:33;;;;;;;20.48;7.97;;;;;;;;;;5143939;27;20398;-76
2022/04/04 07:38:58;;;;;;;18.70;7.05;;;;;;;;;;5146399;27;20397;-75
2022/04/04 07:41:23;;;;;;;21.23;7.82;;;;;;;;;;5141830;27;20557;-75
2022/04/04 07:43:49;;;;;;;19.83;7.15;;;;;;;;;;5145381;27;20033;-73
2022/04/04 07:46:14;;;;;;;17.40;7.47;;;;;;;;;;5122493;27;20370;-74
2022/04/04 07:48:42;;;;;;;17.33;7.68;;;;;;;;;;5127837;27;20145;-74
2022/04/04 07:51:07;;;;;;;20.83;7.30;;;;;;;;;;5127989;27;20094;-72
2022/04/04 07:53:33;;;;;;;14.25;7.10;;;;;;;;;;5130104;27;20047;-74
2022/04/04 07:55:58;;;;;;;18.70;6.53;;;;;;;;;;5127316;27;20058;-76
2022/04/04 07:58:23;;;;;;;16.80;6.60;;;;;;;;;;5126880;27;20514;-74
2022/04/04 08:00:49;;;;;;;19.90;6.90;;;;;;;;;;5098393;27;20025;-78
2022/04/04 08:03:14;;;;;;;18.00;7.03;;;;;;;;;;5147973;27;20457;-75
2022/04/04 08:05:40;;;;;;;22.38;7.85;;;;;;;;;;5145822;27;20035;-72
2022/04/04 08:08:06;;;;;;;15.70;6.97;;;;;;;;;;5145055;27;20415;-72
2022/04/04 08:10:31;;;;;;;18.42;7.03;;;;;;;;;;5123919;27;20515;-74
2022/04/04 08:12:56;;;;;;;20.88;8.27;;;;;;;;;;5145692;27;20457;-75
2022/04/04 08:15:21;;;;;;;19.60;8.15;;;;;;;;;;5124467;27;20322;-73
2022/04/04 08:17:46;;;;;;;22.30;7.53;;;;;;;;;;5146277;27;20490;-74
2022/04/04 08:20:12;;;;;;;23.77;7.90;;;;;;;;;;5141768;27;20400;-72
2022/04/04 08:22:41;;;;;;;22.00;7.35;;;;;;;;;;5145564;27;20026;-76
2022/04/04 08:25:08;;;;;;;23.80;7.35;;;;;;;;;;5124690;27;20026;-73
2022/04/04 08:27:35;;;;;;;18.50;6.90;;;;;;;;;;5110765;27;20393;-75
2022/04/04 08:30:01;;;;;;;22.25;8.23;;;;;;;;;;5148469;27;20062;-78
2022/04/04 08:32:26;;;;;;;25.45;8.20;;;;;;;;;;5129151;27;20034;-78
2022/04/04 08:34:51;;;;;;;20.08;8.48;;;;;;;;;;5120260;27;20029;-77
2022/04/04 08:37:17;;;;;;;17.67;8.45;;;;;;;;;;5147113;27;20027;-76
2022/04/04 08:39:47;;;;;;;22.80;9.07;;;;;;;;;;5127193;27;20292;-77
2022/04/04 08:42:13;;;;;;;18.48;8.35;;;;;;;;;;5145774;27;20133;-75
2022/04/04 08:44:39;;;;;;;22.00;9.48;;;;;;;;;;5147158;27;20545;-76
2022/04/04 08:47:05;;;;;;;23.15;8.88;;;;;;;;;;5127856;27;20038;-75
2022/04/04 08:49:30;;;;;;;24.73;9.35;;;;;;;;;;5130006;27;20383;-77
2022/04/04 08:51:56;;;;;;;24.65;9.05;;;;;;;;;;5153171;27;20019;-78
2022/04/04 08:54:21;;;;;;;28.33;8.65;;;;;;;;;;5140439;27;20523;-75
2022/04/04 08:56:46;;;;;;;25.80;8.88;;;;;;;;;;5155549;27;20468;-76
2022/04/04 08:59:12;;;;;;;26.92;8.52;;;;;;;;;;5150955;27;20392;-76
2022/04/04 09:01:37;;;;;;;19.02;8.43;;;;;;;;;;5112532;27;20511;-76
2022/04/04 09:04:05;;;;;;;15.95;8.65;;;;;;;;;;5131908;27;20296;-76
2022/04/04 09:06:30;;;;;;;27.90;8.75;;;;;;;;;;5109396;27;20049;-76
2022/04/04 09:08:56;;;;;;;29.08;8.82;;;;;;;;;;5130352;27;20381;-77
2022/04/04 09:11:22;;;;;;;29.58;8.32;;;;;;;;;;5128018;27;20107;-74
2022/04/04 09:14:04;;;;;;;20.63;7.25;;;;;;;;;;5131088;27;20413;-76
2022/04/04 09:16:29;;;;;;;24.75;6.70;;;;;;;;;;5130940;27;20076;-75
2022/04/04 09:18:55;;;;;;;20.33;6.85;;;;;;;;;;5129630;27;20020;-74
2022/04/04 09:21:20;;;;;;;21.98;7.15;;;;;;;;;;5126505;27;20015;-75
2022/04/04 09:23:45;;;;;;;28.80;7.15;;;;;;;;;;5116366;27;20388;-77
2022/04/04 09:26:26;;;;;;;27.70;7.43;;;;;;;;;;5148785;27;20388;-77
2022/04/04 09:28:51;;;;;;;20.10;5.82;;;;;;;;;;5149780;27;20018;-77
2022/04/04 09:31:16;;;;;;;23.33;6.72;;;;;;;;;;5148095;27;20021;-75
2022/04/04 09:33:42;;;;;;;22.52;6.70;;;;;;;;;;5149580;27;20081;-76
2022/04/04 09:36:08;;;;;;;20.40;5.85;;;;;;;;;;5137365;27;20023;-75
2022/04/04 09:38:34;;;;;;;22.20;6.32;;;;;;;;;;5144850;27;20027;-76
2022/04/04 09:41:14;;;;;;;22.60;6.57;;;;;;;;;;5148486;27;20049;-77
2022/04/04 09:43:53;;;;;;;21.75;6.20;;;;;;;;;;5121348;27;20038;-78
2022/04/04 09:46:19;;;;;;;22.80;5.95;;;;;;;;;;5127540;27;20027;-77
2022/04/04 09:49:22;;;;;;;20.50;6.00;;;;;;;;;;5138646;27;20027;-74
2022/04/04 09:51:50;;;;;;;27.20;5.38;;;;;;;;;;5024166;28;20062;-74
2022/04/04 09:54:20;;;;;;;26.17;5.88;;;;;;;;;;5118117;27;20030;-74
2022/04/04 09:56:46;;;;;;;22.80;5.88;;;;;;;;;;5148832;27;20473;-72
2022/04/04 09:59:14;;;;;;;23.70;6.05;;;;;;;;;;5129145;27;20029;-72
2022/04/04 10:01:40;;;;;;;23.45;5.90;;;;;;;;;;5118859;27;20387;-73
2022/04/04 10:04:07;;;;;;;28.25;6.30;;;;;;;;;;5109672;27;20019;-72
2022/04/04 10:06:33;;;;;;;32.08;6.07;;;;;;;;;;5138947;27;20471;-72
2022/04/04 10:08:59;;;;;;;24.88;5.90;;;;;;;;;;5148495;27;20018;-73
2022/04/04 10:11:25;;;;;;;24.30;5.80;;;;;;;;;;5145545;27;20101;-74
2022/04/04 10:13:54;;;;;;;21.95;5.10;;;;;;;;;;5148883;27;20358;-73
2022/04/04 10:16:19;;;;;;;23.02;5.47;;;;;;;;;;5143952;27;20065;-72
2022/04/04 10:18:45;;;;;;;21.23;5.88;;;;;;;;;;5148206;27;20042;-71
2022/04/04 10:21:11;;;;;;;24.02;5.40;;;;;;;;;;5135888;27;20405;-72
2022/04/04 10:23:37;;;;;;;20.25;5.30;;;;;;;;;;5127760;27;20392;-73
2022/04/04 10:26:03;;;;;;;28.52;5.53;;;;;;;;;;5142421;27;20030;-72
2022/04/04 10:28:29;;;;;;;23.08;5.60;;;;;;;;;;5147366;27;20034;-72
2022/04/04 10:30:59;;;;;;;25.50;4.97;;;;;;;;;;5144009;27;20023;-72
2022/04/04 10:33:24;;;;;;;16.58;5.47;;;;;;;;;;5147184;27;20015;-72
2022/04/04 10:36:03;;;;;;;22.15;5.13;;;;;;;;;;5106923;27;20386;-73
2022/04/04 10:38:30;;;;;;;25.33;5.50;;;;;;;;;;5107515;27;20465;-72
2022/04/04 10:40:55;;;;;;;18.35;5.35;;;;;;;;;;5124756;27;20043;-74
2022/04/04 10:43:21;;;;;;;23.85;6.10;;;;;;;;;;5125345;27;20442;-73
2022/04/04 10:45:59;;;;;;;28.17;5.63;;;;;;;;;;5104272;27;20170;-72
2022/04/04 10:48:35;;;;;;;20.92;4.95;;;;;;;;;;5107079;27;20027;-71
2022/04/04 10:51:12;;;;;;;18.35;5.00;;;;;;;;;;5104872;27;20449;-73
2022/04/04 10:53:38;;;;;;;17.58;4.65;;;;;;;;;;5107122;27;20177;-74
2022/04/04 10:56:04;;;;;;;18.77;4.88;;;;;;;;;;5123806;27;20102;-72
2022/04/04 10:58:29;;;;;;;17.02;4.70;;;;;;;;;;5105530;27;20107;-74
2022/04/04 11:00:55;;;;;;;18.60;4.60;;;;;;;;;;5123224;27;20023;-72
2022/04/04 11:03:32;;;;;;;18.52;4.28;;;;;;;;;;5137068;27;20027;-74
2022/04/04 11:08:57;;;;;;;12.77;4.45;;;;;;;;;;5125222;27;20062;-75
2022/04/04 11:11:39;;;;;;;15.65;4.47;;;;;;;;;;5122810;27;20034;-74
2022/04/04 11:14:05;;;;;;;13.25;3.83;;;;;;;;;;5136308;27;20026;-75
2022/04/04 11:16:49;;;;;;;17.58;4.70;;;;;;;;;;5127233;27;20109;-74
2022/04/04 11:19:18;;;;;;;16.75;4.32;;;;;;;;;;5145304;27;20103;-72
2022/04/04 11:21:44;;;;;;;14.73;4.35;;;;;;;;;;5122774;27;20556;-76
2022/04/04 11:24:09;;;;;;;13.15;4.63;;;;;;;;;;5136533;27;20015;-73
2022/04/04 11:26:35;;;;;;;13.68;4.97;;;;;;;;;;5125777;27;20389;-74
2022/04/04 11:29:01;;;;;;;13.80;4.68;;;;;;;;;;5126861;27;20071;-72
2022/04/04 11:31:26;;;;;;;19.25;4.97;;;;;;;;;;5137223;27;20015;-73
2022/04/04 11:33:53;;;;;;;19.05;4.93;;;;;;;;;;5145691;27;20030;-74
2022/04/04 11:36:22;;;;;;;16.70;5.25;;;;;;;;;;5132575;27;20026;-73
2022/04/04 11:38:50;;;;;;;18.52;5.05;;;;;;;;;;5110026;27;20431;-72
2022/04/04 11:41:16;;;;;;;13.43;4.90;;;;;;;;;;5141475;27;20135;-72
2022/04/04 11:43:47;;;;;;;21.80;6.00;;;;;;;;;;5122991;27;20106;-72
2022/04/04 11:46:14;;;;;;;20.23;6.70;;;;;;;;;;5137239;27;20582;-72
2022/04/04 11:48:47;;;;;;;19.17;6.20;;;;;;;;;;5124149;27;20122;-73
2022/04/04 11:51:12;;;;;;;22.55;6.38;;;;;;;;;;5143471;27;20098;-70
2022/04/04 11:53:38;;;;;;;20.33;6.75;;;;;;;;;;5145814;27;20167;-73
2022/04/04 11:56:08;;;;;;;20.80;7.40;;;;;;;;;;5124084;27;20504;-70
2022/04/04 11:58:37;;;;;;;23.02;8.15;;;;;;;;;;5123823;27;20019;-72
2022/04/04 12:01:04;;;;;;;25.58;9.35;;;;;;;;;;5121520;27;20066;-71
2022/04/04 12:03:32;;;;;;;29.52;9.40;;;;;;;;;;5124400;27;20421;-72
2022/04/04 12:05:58;;;;;;;29.13;9.07;;;;;;;;;;5122370;27;20135;-72
2022/04/04 12:08:25;;;;;;;24.20;9.27;;;;;;;;;;5125366;27;20473;-73
2022/04/04 12:10:51;;;;;;;27.10;8.63;;;;;;;;;;5087039;27;20458;-71
2022/04/04 12:13:19;;;;;;;25.77;9.85;;;;;;;;;;5107723;27;20027;-72
2022/04/04 12:15:45;;;;;;;37.42;11.50;;;;;;;;;;5122282;27;20111;-74
2022/04/04 12:18:11;;;;;;;41.55;11.27;;;;;;;;;;5125080;27;20307;-72
2022/04/04 12:20:40;;;;;;;32.88;11.27;;;;;;;;;;5121394;27;20054;-72
2022/04/04 12:25:53;;;;;;;28.92;10.80;;;;;;;;;;5127198;27;20031;-70
2022/04/04 12:28:22;;;;;;;34.15;10.90;;;;;;;;;;5130410;27;20046;-73
2022/04/04 12:30:48;;;;;;;44.88;11.77;;;;;;;;;;5125419;27;20030;-72
2022/04/04 12:33:13;;;;;;;29.90;11.80;;;;;;;;;;5110927;27;20380;-72
2022/04/04 12:35:43;;;;;;;34.65;12.85;;;;;;;;;;5126653;27;20365;-73
2022/04/04 12:38:09;;;;;;;39.75;12.15;;;;;;;;;;5129023;27;20439;-73
2022/04/04 12:40:34;;;;;;;39.10;11.75;;;;;;;;;;5125837;27;20035;-72
2022/04/04 12:43:07;;;;;;;32.65;11.65;;;;;;;;;;5128409;27;20114;-72
2022/04/04 12:45:32;;;;;;;35.30;12.32;;;;;;;;;;5125950;27;21019;-72
2022/04/04 12:47:58;;;;;;;42.25;13.02;;;;;;;;;;5128985;27;20027;-71
2022/04/04 12:50:25;;;;;;;42.45;12.82;;;;;;;;;;5125299;27;20255;-72
2022/04/04 12:53:01;;;;;;;42.78;14.38;;;;;;;;;;5109185;27;20052;-72
2022/04/04 12:55:28;;;;;;;43.35;13.23;;;;;;;;;;5106414;27;20126;-74
2022/04/04 12:57:54;;;;;;;40.47;13.65;;;;;;;;;;5092735;27;20379;-72
2022/04/04 13:00:29;;;;;;;45.53;14.45;;;;;;;;;;5125909;27;20025;-73
2022/04/04 13:02:55;;;;;;;42.28;13.30;;;;;;;;;;5093167;27;20023;-72
2022/04/04 13:05:23;;;;;;;37.25;12.75;;;;;;;;;;5123731;27;20055;-72
2022/04/04 13:07:49;;;;;;;36.35;12.80;;;;;;;;;;5125886;27;20023;-72
2022/04/04 13:10:15;;;;;;;34.53;12.27;;;;;;;;;;5124160;27;20022;-72
2022/04/04 13:12:41;;;;;;;48.45;13.20;;;;;;;;;;5127922;27;20423;-72
2022/04/04 13:15:10;;;;;;;36.63;12.68;;;;;;;;;;5127135;27;20019;-74
2022/04/04 13:17:40;;;;;;;38.97;12.32;;;;;;;;;;5103800;27;20068;-73
2022/04/04 13:20:09;;;;;;;36.28;11.93;;;;;;;;;;5123377;27;20019;-73
2022/04/04 13:22:35;;;;;;;38.33;11.10;;;;;;;;;;5123534;27;20019;-73
2022/04/04 13:25:01;;;;;;;38.65;10.88;;;;;;;;;;5123781;27;20015;-72
2022/04/04 13:27:26;;;;;;;45.80;12.32;;;;;;;;;;5124960;27;20066;-73
2022/04/04 13:29:53;;;;;;;38.38;13.57;;;;;;;;;;5104874;27;20034;-73
2022/04/04 13:32:18;;;;;;;35.53;11.38;;;;;;;;;;5124612;27;20023;-72
2022/04/04 13:34:46;;;;;;;34.70;12.45;;;;;;;;;;5121123;27;20389;-73
2022/04/04 13:37:11;;;;;;;36.58;11.65;;;;;;;;;;5125411;27;20068;-72
2022/04/04 13:39:36;;;;;;;36.70;11.70;;;;;;;;;;5121742;27;20084;-72
2022/04/04 13:42:03;;;;;;;35.53;11.30;;;;;;;;;;5123907;27;20659;-72
2022/04/04 13:44:29;;;;;;;40.13;11.82;;;;;;;;;;5126898;27;20063;-72
2022/04/04 13:46:55;;;;;;;31.08;11.25;;;;;;;;;;5124410;27;20100;-74
2022/04/04 13:49:20;;;;;;;36.00;11.65;;;;;;;;;;5123397;27;20177;-72
2022/04/04 13:51:46;;;;;;;33.95;10.93;;;;;;;;;;5106467;27;20026;-72
2022/04/04 13:54:13;;;;;;;34.63;11.07;;;;;;;;;;5126364;27;20023;-73
2022/04/04 13:56:38;;;;;;;40.00;11.63;;;;;;;;;;5103644;27;20125;-73
2022/04/04 13:59:04;;;;;;;34.80;11.13;;;;;;;;;;5108372;27;20404;-72
2022/04/04 14:01:29;;;;;;;33.90;10.85;;;;;;;;;;5125281;27;20106;-73
2022/04/04 14:03:56;;;;;;;31.10;10.57;;;;;;;;;;5127990;27;20030;-73
2022/04/04 14:06:21;;;;;;;37.65;10.65;;;;;;;;;;5144781;27;20026;-72
2022/04/04 14:08:46;;;;;;;38.63;10.60;;;;;;;;;;5147324;27;20031;-73
2022/04/04 14:11:12;;;;;;;37.60;10.68;;;;;;;;;;5103867;27;20008;-73
2022/04/04 14:13:39;;;;;;;41.42;10.98;;;;;;;;;;5108289;27;20574;-73
2022/04/04 14:16:05;;;;;;;35.53;11.18;;;;;;;;;;5124047;27;20030;-73
2022/04/04 14:18:30;;;;;;;37.35;11.02;;;;;;;;;;5108908;27;20029;-74
2022/04/04 14:20:56;;;;;;;37.58;11.25;;;;;;;;;;5122556;27;20713;-72
2022/04/04 14:23:21;;;;;;;43.90;12.50;;;;;;;;;;5126300;27;20485;-73
2022/04/04 14:25:48;;;;;;;35.00;11.93;;;;;;;;;;5123096;27;20474;-72
2022/04/04 14:28:13;;;;;;;35.55;11.38;;;;;;;;;;5108156;27;20023;-73
2022/04/04 14:30:38;;;;;;;29.92;11.65;;;;;;;;;;5120677;27;20042;-74
2022/04/04 14:33:04;;;;;;;39.97;12.18;;;;;;;;;;5089196;27;20107;-74
2022/04/04 14:35:29;;;;;;;31.90;11.52;;;;;;;;;;5123256;27;20023;-72
2022/04/04 14:37:54;;;;;;;36.95;12.32;;;;;;;;;;5123811;27;20899;-73
2022/04/04 14:40:20;;;;;;;34.97;12.30;;;;;;;;;;5123242;27;20019;-73
2022/04/04 14:42:46;;;;;;;44.38;12.90;;;;;;;;;;5088591;27;20058;-73
2022/04/04 14:45:12;;;;;;;40.30;12.63;;;;;;;;;;5104663;27;20346;-73
2022/04/04 14:47:38;;;;;;;39.50;11.88;;;;;;;;;;5086006;27;20187;-73
2022/04/04 14:50:07;;;;;;;31.58;11.43;;;;;;;;;;5086533;27;20549;-72
2022/04/04 14:52:40;;;;;;;31.10;12.27;;;;;;;;;;5124562;27;20023;-73
2022/04/04 14:55:07;;;;;;;33.95;11.38;;;;;;;;;;5103674;27;20052;-74
2022/04/04 14:57:32;;;;;;;42.20;12.45;;;;;;;;;;5088450;27;20049;-72
2022/04/04 14:59:58;;;;;;;33.08;11.60;;;;;;;;;;5123649;27;20027;-73
2022/04/04 15:02:23;;;;;;;36.17;11.88;;;;;;;;;;5121163;27;20429;-74
2022/04/04 15:04:49;;;;;;;29.85;12.02;;;;;;;;;;5130127;27;20054;-73
2022/04/04 15:07:14;;;;;;;37.58;11.57;;;;;;;;;;5144666;27;20041;-72
2022/04/04 15:09:40;;;;;;;36.60;11.77;;;;;;;;;;5123164;27;20737;-72
2022/04/04 15:12:08;;;;;;;33.42;12.68;;;;;;;;;;5106069;27;20029;-73
2022/04/04 15:14:33;;;;;;;29.30;13.85;;;;;;;;;;5145005;27;20049;-73
2022/04/04 15:16:59;;;;;;;43.10;12.52;;;;;;;;;;5141005;27;20019;-73
2022/04/04 15:19:24;;;;;;;31.55;12.00;;;;;;;;;;5147662;27;20082;-75
2022/04/04 15:21:49;;;;;;;32.85;11.40;;;;;;;;;;5142955;27;20495;-73
2022/04/04 15:24:15;;;;;;;38.17;12.32;;;;;;;;;;5138905;27;20029;-74
2022/04/04 15:26:44;;;;;;;32.78;11.43;;;;;;;;;;5107483;27;20065;-74
2022/04/04 15:29:09;;;;;;;41.85;12.13;;;;;;;;;;5108555;27;20026;-75
2022/04/04 15:31:35;;;;;;;32.28;12.90;;;;;;;;;;5121951;27;20019;-73
2022/04/04 15:34:01;;;;;;;41.03;12.95;;;;;;;;;;5124628;27;20481;-74
2022/04/04 15:36:26;;;;;;;38.45;11.55;;;;;;;;;;5142261;27;20402;-74
2022/04/04 15:38:52;;;;;;;36.30;12.13;;;;;;;;;;5144501;27;20387;-72
2022/04/04 15:41:23;;;;;;;34.95;14.13;;;;;;;;;;5138535;27;20066;-74
2022/04/04 15:43:51;;;;;;;37.85;11.93;;;;;;;;;;5100682;27;20769;-74
2022/04/04 15:46:17;;;;;;;33.72;12.05;;;;;;;;;;5123785;27;20015;-73
2022/04/04 15:48:43;;;;;;;33.75;11.60;;;;;;;;;;5125344;27;20053;-72
2022/04/04 15:51:09;;;;;;;37.70;12.13;;;;;;;;;;5105222;27;20113;-74
2022/04/04 15:53:37;;;;;;;38.30;10.80;;;;;;;;;;5126453;27;20480;-77
2022/04/04 15:56:03;;;;;;;32.25;11.55;;;;;;;;;;5139343;27;20171;-74
2022/04/04 15:58:28;;;;;;;35.97;11.50;;;;;;;;;;5144107;27;20384;-74
2022/04/04 16:00:54;;;;;;;42.67;11.38;;;;;;;;;;5123945;27;20023;-74